sensor_id;sensor_type;location;lat;lon;timestamp;temperature;humidity
41953;DHT22;63613;28.200;112.870;2023-06-22T00:01:52;28.60;66.00
41953;DHT22;63613;28.200;112.870;2023-06-22T00:04:18;28.60;66.00
41953;DHT22;63613;28.200;112.870;2023-06-22T00:06:45;28.60;66.00
41953;DHT22;63613;28.200;112.870;2023-06-22T00:09:12;28.60;66.00
41953;DHT22;63613;28.200;112.870;2023-06-22T00:11:39;28.60;66.00
41953;DHT22;63613;28.200;112.870;2023-06-22T00:14:06;28.50;66.00
41953;DHT22;63613;28.200;112.870;2023-06-22T00:16:33;28.60;66.00
41953;DHT22;63613;28.200;112.870;2023-06-22T00:19:02;28.60;66.00
41953;DHT22;63613;28.200;112.870;2023-06-22T00:21:32;28.50;66.00
41953;DHT22;63613;28.200;112.870;2023-06-22T00:23:59;28.50;66.00
41953;DHT22;63613;28.200;112.870;2023-06-22T00:26:26;28.50;65.90
41953;DHT22;63613;28.200;112.870;2023-06-22T00:28:56;28.50;65.90
41953;DHT22;63613;28.200;112.870;2023-06-22T00:31:22;28.50;65.90
41953;DHT22;63613;28.200;112.870;2023-06-22T00:33:49;28.50;65.90
41953;DHT22;63613;28.200;112.870;2023-06-22T00:36:17;28.50;66.00
41953;DHT22;63613;28.200;112.870;2023-06-22T00:38:47;28.50;66.00
41953;DHT22;63613;28.200;112.870;2023-06-22T00:41:16;28.50;65.90
41953;DHT22;63613;28.200;112.870;2023-06-22T00:43:49;28.50;65.80
41953;DHT22;63613;28.200;112.870;2023-06-22T00:46:16;28.50;65.90
41953;DHT22;63613;28.200;112.870;2023-06-22T00:48:42;28.50;65.80
41953;DHT22;63613;28.200;112.870;2023-06-22T00:51:10;28.50;65.80
41953;DHT22;63613;28.200;112.870;2023-06-22T00:53:37;28.50;65.80
41953;DHT22;63613;28.200;112.870;2023-06-22T00:56:04;28.50;65.80
41953;DHT22;63613;28.200;112.870;2023-06-22T00:58:33;28.50;65.70
41953;DHT22;63613;28.200;112.870;2023-06-22T01:01:01;28.50;65.70
41953;DHT22;63613;28.200;112.870;2023-06-22T01:03:28;28.60;65.70
41953;DHT22;63613;28.200;112.870;2023-06-22T01:06:02;28.50;65.70
41953;DHT22;63613;28.200;112.870;2023-06-22T01:08:51;28.50;65.70
41953;DHT22;63613;28.200;112.870;2023-06-22T01:11:37;28.50;65.70
41953;DHT22;63613;28.200;112.870;2023-06-22T01:14:28;28.50;65.60
41953;DHT22;63613;28.200;112.870;2023-06-22T01:16:59;28.50;65.60
41953;DHT22;63613;28.200;112.870;2023-06-22T01:19:46;28.50;65.60
41953;DHT22;63613;28.200;112.870;2023-06-22T01:22:17;28.50;65.60
41953;DHT22;63613;28.200;112.870;2023-06-22T01:27:58;28.50;65.50
41953;DHT22;63613;28.200;112.870;2023-06-22T01:30:30;28.50;65.50
41953;DHT22;63613;28.200;112.870;2023-06-22T01:32:58;28.50;65.50
41953;DHT22;63613;28.200;112.870;2023-06-22T01:35:25;28.50;65.40
41953;DHT22;63613;28.200;112.870;2023-06-22T01:37:55;28.50;65.30
41953;DHT22;63613;28.200;112.870;2023-06-22T01:40:23;28.50;65.30
41953;DHT22;63613;28.200;112.870;2023-06-22T01:42:50;28.50;65.30
41953;DHT22;63613;28.200;112.870;2023-06-22T01:45:19;28.50;65.40
41953;DHT22;63613;28.200;112.870;2023-06-22T01:47:46;28.50;65.30
41953;DHT22;63613;28.200;112.870;2023-06-22T01:50:13;28.50;65.30
41953;DHT22;63613;28.200;112.870;2023-06-22T01:52:40;28.50;65.30
41953;DHT22;63613;28.200;112.870;2023-06-22T01:55:07;28.50;65.30
41953;DHT22;63613;28.200;112.870;2023-06-22T01:57:34;28.50;65.20
41953;DHT22;63613;28.200;112.870;2023-06-22T02:00:07;28.50;65.20
41953;DHT22;63613;28.200;112.870;2023-06-22T02:05:19;28.50;65.20
41953;DHT22;63613;28.200;112.870;2023-06-22T02:07:56;28.50;65.20
41953;DHT22;63613;28.200;112.870;2023-06-22T02:10:27;28.50;65.10
41953;DHT22;63613;28.200;112.870;2023-06-22T02:12:55;28.50;65.00
41953;DHT22;63613;28.200;112.870;2023-06-22T02:15:22;28.50;65.00
41953;DHT22;63613;28.200;112.870;2023-06-22T02:17:52;28.50;64.90
41953;DHT22;63613;28.200;112.870;2023-06-22T02:20:19;28.50;64.90
41953;DHT22;63613;28.200;112.870;2023-06-22T02:22:46;28.50;64.80
41953;DHT22;63613;28.200;112.870;2023-06-22T02:25:13;28.50;64.80
41953;DHT22;63613;28.200;112.870;2023-06-22T02:27:40;28.60;64.70
41953;DHT22;63613;28.200;112.870;2023-06-22T02:30:10;28.60;64.80
41953;DHT22;63613;28.200;112.870;2023-06-22T02:32:37;28.60;64.80
41953;DHT22;63613;28.200;112.870;2023-06-22T02:35:08;28.50;64.80
41953;DHT22;63613;28.200;112.870;2023-06-22T02:37:39;28.50;64.90
41953;DHT22;63613;28.200;112.870;2023-06-22T02:40:08;28.50;64.90
41953;DHT22;63613;28.200;112.870;2023-06-22T02:42:37;28.60;64.90
41953;DHT22;63613;28.200;112.870;2023-06-22T02:45:07;28.50;64.90
41953;DHT22;63613;28.200;112.870;2023-06-22T02:47:34;28.50;64.90
41953;DHT22;63613;28.200;112.870;2023-06-22T02:50:01;28.50;64.80
41953;DHT22;63613;28.200;112.870;2023-06-22T02:52:28;28.50;64.80
41953;DHT22;63613;28.200;112.870;2023-06-22T02:54:55;28.50;64.80
41953;DHT22;63613;28.200;112.870;2023-06-22T02:57:22;28.50;64.70
41953;DHT22;63613;28.200;112.870;2023-06-22T02:59:48;28.50;64.80
41953;DHT22;63613;28.200;112.870;2023-06-22T03:02:15;28.50;64.70
41953;DHT22;63613;28.200;112.870;2023-06-22T03:04:42;28.50;64.70
41953;DHT22;63613;28.200;112.870;2023-06-22T03:07:09;28.50;64.80
41953;DHT22;63613;28.200;112.870;2023-06-22T03:09:36;28.50;64.80
41953;DHT22;63613;28.200;112.870;2023-06-22T03:12:05;28.50;64.70
41953;DHT22;63613;28.200;112.870;2023-06-22T03:14:35;28.50;64.70
41953;DHT22;63613;28.200;112.870;2023-06-22T03:17:02;28.50;64.70
41953;DHT22;63613;28.200;112.870;2023-06-22T03:19:30;28.50;64.80
41953;DHT22;63613;28.200;112.870;2023-06-22T03:22:00;28.50;64.80
41953;DHT22;63613;28.200;112.870;2023-06-22T03:24:27;28.50;64.90
41953;DHT22;63613;28.200;112.870;2023-06-22T03:26:57;28.40;64.90
41953;DHT22;63613;28.200;112.870;2023-06-22T03:29:27;28.40;65.00
41953;DHT22;63613;28.200;112.870;2023-06-22T03:31:57;28.50;65.00
41953;DHT22;63613;28.200;112.870;2023-06-22T03:34:28;28.40;65.00
41953;DHT22;63613;28.200;112.870;2023-06-22T03:36:57;28.40;65.00
41953;DHT22;63613;28.200;112.870;2023-06-22T03:39:24;28.40;65.00
41953;DHT22;63613;28.200;112.870;2023-06-22T03:41:51;28.40;65.00
41953;DHT22;63613;28.200;112.870;2023-06-22T03:44:18;28.40;65.00
41953;DHT22;63613;28.200;112.870;2023-06-22T03:46:45;28.40;65.00
41953;DHT22;63613;28.200;112.870;2023-06-22T03:49:11;28.40;64.90
41953;DHT22;63613;28.200;112.870;2023-06-22T03:51:38;28.40;64.90
41953;DHT22;63613;28.200;112.870;2023-06-22T03:54:05;28.40;64.90
41953;DHT22;63613;28.200;112.870;2023-06-22T03:56:32;28.40;64.80
41953;DHT22;63613;28.200;112.870;2023-06-22T03:58:59;28.40;64.80
41953;DHT22;63613;28.200;112.870;2023-06-22T04:01:26;28.40;64.80
41953;DHT22;63613;28.200;112.870;2023-06-22T04:03:53;28.40;64.90
41953;DHT22;63613;28.200;112.870;2023-06-22T04:06:20;28.40;64.80
41953;DHT22;63613;28.200;112.870;2023-06-22T04:08:49;28.40;64.80
41953;DHT22;63613;28.200;112.870;2023-06-22T04:11:17;28.40;64.80
41953;DHT22;63613;28.200;112.870;2023-06-22T04:13:44;28.30;64.80
41953;DHT22;63613;28.200;112.870;2023-06-22T04:16:11;28.40;64.90
41953;DHT22;63613;28.200;112.870;2023-06-22T04:18:38;28.40;64.80
41953;DHT22;63613;28.200;112.870;2023-06-22T04:21:05;28.40;64.90
41953;DHT22;63613;28.200;112.870;2023-06-22T04:23:32;28.40;64.80
41953;DHT22;63613;28.200;112.870;2023-06-22T04:26:00;28.40;64.80
41953;DHT22;63613;28.200;112.870;2023-06-22T04:28:27;28.40;64.80
41953;DHT22;63613;28.200;112.870;2023-06-22T04:30:54;28.40;64.90
41953;DHT22;63613;28.200;112.870;2023-06-22T04:33:24;28.40;64.90
41953;DHT22;63613;28.200;112.870;2023-06-22T04:35:52;28.40;64.90
41953;DHT22;63613;28.200;112.870;2023-06-22T04:38:19;28.40;64.90
41953;DHT22;63613;28.200;112.870;2023-06-22T04:40:47;28.40;64.90
41953;DHT22;63613;28.200;112.870;2023-06-22T04:43:14;28.40;64.90
41953;DHT22;63613;28.200;112.870;2023-06-22T04:45:41;28.30;64.90
41953;DHT22;63613;28.200;112.870;2023-06-22T04:48:08;28.30;64.90
41953;DHT22;63613;28.200;112.870;2023-06-22T04:50:38;28.30;64.90
41953;DHT22;63613;28.200;112.870;2023-06-22T04:53:07;28.40;64.90
41953;DHT22;63613;28.200;112.870;2023-06-22T04:55:39;28.40;64.90
41953;DHT22;63613;28.200;112.870;2023-06-22T04:58:12;28.40;64.80
41953;DHT22;63613;28.200;112.870;2023-06-22T05:00:39;28.40;64.80
41953;DHT22;63613;28.200;112.870;2023-06-22T05:03:06;28.40;64.80
41953;DHT22;63613;28.200;112.870;2023-06-22T05:05:37;28.30;64.80
41953;DHT22;63613;28.200;112.870;2023-06-22T05:08:04;28.30;64.80
41953;DHT22;63613;28.200;112.870;2023-06-22T05:10:33;28.40;64.80
41953;DHT22;63613;28.200;112.870;2023-06-22T05:13:00;28.30;64.80
41953;DHT22;63613;28.200;112.870;2023-06-22T05:15:27;28.30;64.80
41953;DHT22;63613;28.200;112.870;2023-06-22T05:17:56;28.40;64.80
41953;DHT22;63613;28.200;112.870;2023-06-22T05:20:24;28.40;64.80
41953;DHT22;63613;28.200;112.870;2023-06-22T05:22:53;28.40;64.80
41953;DHT22;63613;28.200;112.870;2023-06-22T05:25:22;28.40;64.80
41953;DHT22;63613;28.200;112.870;2023-06-22T05:27:48;28.40;64.80
41953;DHT22;63613;28.200;112.870;2023-06-22T05:30:17;28.40;64.70
41953;DHT22;63613;28.200;112.870;2023-06-22T05:32:47;28.40;64.70
41953;DHT22;63613;28.200;112.870;2023-06-22T05:35:13;28.40;64.70
41953;DHT22;63613;28.200;112.870;2023-06-22T05:37:40;28.30;64.70
41953;DHT22;63613;28.200;112.870;2023-06-22T05:40:09;28.30;64.70
41953;DHT22;63613;28.200;112.870;2023-06-22T05:42:36;28.40;64.70
41953;DHT22;63613;28.200;112.870;2023-06-22T05:45:05;28.40;64.70
41953;DHT22;63613;28.200;112.870;2023-06-22T05:47:35;28.40;64.70
41953;DHT22;63613;28.200;112.870;2023-06-22T05:50:03;28.30;64.70
41953;DHT22;63613;28.200;112.870;2023-06-22T05:52:35;28.30;64.70
41953;DHT22;63613;28.200;112.870;2023-06-22T05:55:02;28.30;64.70
41953;DHT22;63613;28.200;112.870;2023-06-22T05:57:32;28.30;64.70
41953;DHT22;63613;28.200;112.870;2023-06-22T06:00:19;28.40;64.60
41953;DHT22;63613;28.200;112.870;2023-06-22T06:02:49;28.30;64.50
41953;DHT22;63613;28.200;112.870;2023-06-22T06:05:17;28.30;64.50
41953;DHT22;63613;28.200;112.870;2023-06-22T06:07:47;28.40;64.50
41953;DHT22;63613;28.200;112.870;2023-06-22T06:10:19;28.40;64.50
41953;DHT22;63613;28.200;112.870;2023-06-22T06:12:46;28.30;64.50
41953;DHT22;63613;28.200;112.870;2023-06-22T06:15:12;28.30;64.60
41953;DHT22;63613;28.200;112.870;2023-06-22T06:17:51;28.30;64.60
41953;DHT22;63613;28.200;112.870;2023-06-22T06:20:22;28.30;64.60
41953;DHT22;63613;28.200;112.870;2023-06-22T06:22:52;28.30;64.60
41953;DHT22;63613;28.200;112.870;2023-06-22T06:25:19;28.30;64.60
41953;DHT22;63613;28.200;112.870;2023-06-22T06:27:49;28.30;64.70
41953;DHT22;63613;28.200;112.870;2023-06-22T06:30:18;28.30;64.70
41953;DHT22;63613;28.200;112.870;2023-06-22T06:32:45;28.30;64.70
41953;DHT22;63613;28.200;112.870;2023-06-22T06:35:14;28.30;64.60
41953;DHT22;63613;28.200;112.870;2023-06-22T06:37:47;28.30;64.70
41953;DHT22;63613;28.200;112.870;2023-06-22T06:40:16;28.30;64.70
41953;DHT22;63613;28.200;112.870;2023-06-22T06:42:45;28.30;64.70
41953;DHT22;63613;28.200;112.870;2023-06-22T06:45:16;28.20;64.70
41953;DHT22;63613;28.200;112.870;2023-06-22T06:47:43;28.30;64.70
41953;DHT22;63613;28.200;112.870;2023-06-22T06:50:12;28.20;64.70
41953;DHT22;63613;28.200;112.870;2023-06-22T06:53:01;28.20;64.70
41953;DHT22;63613;28.200;112.870;2023-06-22T06:55:27;28.20;64.80
41953;DHT22;63613;28.200;112.870;2023-06-22T06:57:54;28.30;64.80
41953;DHT22;63613;28.200;112.870;2023-06-22T07:00:21;28.20;64.70
41953;DHT22;63613;28.200;112.870;2023-06-22T07:02:50;28.30;64.70
41953;DHT22;63613;28.200;112.870;2023-06-22T07:05:16;28.30;64.80
41953;DHT22;63613;28.200;112.870;2023-06-22T07:07:46;28.20;64.80
41953;DHT22;63613;28.200;112.870;2023-06-22T07:10:15;28.30;64.80
41953;DHT22;63613;28.200;112.870;2023-06-22T07:12:42;28.20;64.80
41953;DHT22;63613;28.200;112.870;2023-06-22T07:15:11;28.20;64.90
41953;DHT22;63613;28.200;112.870;2023-06-22T07:17:39;28.20;64.90
41953;DHT22;63613;28.200;112.870;2023-06-22T07:20:11;28.20;64.80
41953;DHT22;63613;28.200;112.870;2023-06-22T07:22:39;28.20;64.80
41953;DHT22;63613;28.200;112.870;2023-06-22T07:25:07;28.20;64.90
41953;DHT22;63613;28.200;112.870;2023-06-22T07:27:45;28.20;64.90
41953;DHT22;63613;28.200;112.870;2023-06-22T07:30:14;28.20;64.90
41953;DHT22;63613;28.200;112.870;2023-06-22T07:32:41;28.20;65.00
41953;DHT22;63613;28.200;112.870;2023-06-22T07:35:10;28.20;64.90
41953;DHT22;63613;28.200;112.870;2023-06-22T07:37:38;28.20;64.90
41953;DHT22;63613;28.200;112.870;2023-06-22T07:40:05;28.20;65.00
41953;DHT22;63613;28.200;112.870;2023-06-22T07:42:32;28.20;65.00
41953;DHT22;63613;28.200;112.870;2023-06-22T07:45:02;28.20;65.00
41953;DHT22;63613;28.200;112.870;2023-06-22T07:47:30;28.20;65.10
41953;DHT22;63613;28.200;112.870;2023-06-22T07:49:59;28.20;65.10
41953;DHT22;63613;28.200;112.870;2023-06-22T07:52:37;28.20;65.10
41953;DHT22;63613;28.200;112.870;2023-06-22T07:55:07;28.20;65.10
41953;DHT22;63613;28.200;112.870;2023-06-22T07:57:35;28.20;65.00
41953;DHT22;63613;28.200;112.870;2023-06-22T08:00:04;28.20;65.00
41953;DHT22;63613;28.200;112.870;2023-06-22T08:02:42;28.20;65.00
41953;DHT22;63613;28.200;112.870;2023-06-22T08:05:09;28.20;65.00
41953;DHT22;63613;28.200;112.870;2023-06-22T08:07:38;28.20;65.00
41953;DHT22;63613;28.200;112.870;2023-06-22T08:10:05;28.20;65.00
41953;DHT22;63613;28.200;112.870;2023-06-22T08:12:35;28.20;65.00
41953;DHT22;63613;28.200;112.870;2023-06-22T08:15:05;28.20;65.00
41953;DHT22;63613;28.200;112.870;2023-06-22T08:17:38;28.20;65.00
41953;DHT22;63613;28.200;112.870;2023-06-22T08:20:06;28.20;65.00
41953;DHT22;63613;28.200;112.870;2023-06-22T08:22:55;28.20;65.10
41953;DHT22;63613;28.200;112.870;2023-06-22T08:25:44;28.20;65.00
41953;DHT22;63613;28.200;112.870;2023-06-22T08:28:10;28.20;65.00
41953;DHT22;63613;28.200;112.870;2023-06-22T08:30:39;28.20;65.10
41953;DHT22;63613;28.200;112.870;2023-06-22T08:33:06;28.20;65.10
41953;DHT22;63613;28.200;112.870;2023-06-22T08:35:32;28.10;65.10
41953;DHT22;63613;28.200;112.870;2023-06-22T08:38:01;28.10;65.10
41953;DHT22;63613;28.200;112.870;2023-06-22T08:40:28;28.10;65.10
41953;DHT22;63613;28.200;112.870;2023-06-22T08:42:55;28.10;65.00
41953;DHT22;63613;28.200;112.870;2023-06-22T08:45:22;28.10;65.00
41953;DHT22;63613;28.200;112.870;2023-06-22T08:47:49;28.20;65.10
41953;DHT22;63613;28.200;112.870;2023-06-22T08:50:18;28.10;65.10
41953;DHT22;63613;28.200;112.870;2023-06-22T08:52:47;28.10;65.10
41953;DHT22;63613;28.200;112.870;2023-06-22T08:55:14;28.10;65.10
41953;DHT22;63613;28.200;112.870;2023-06-22T08:57:41;28.10;65.10
41953;DHT22;63613;28.200;112.870;2023-06-22T09:00:10;28.10;65.10
41953;DHT22;63613;28.200;112.870;2023-06-22T09:02:44;28.10;65.10
41953;DHT22;63613;28.200;112.870;2023-06-22T09:05:11;28.10;65.10
41953;DHT22;63613;28.200;112.870;2023-06-22T09:07:38;28.10;65.10
41953;DHT22;63613;28.200;112.870;2023-06-22T09:10:06;28.10;65.10
41953;DHT22;63613;28.200;112.870;2023-06-22T09:12:34;28.10;65.10
41953;DHT22;63613;28.200;112.870;2023-06-22T09:15:04;28.10;65.10
41953;DHT22;63613;28.200;112.870;2023-06-22T09:17:34;28.10;65.20
41953;DHT22;63613;28.200;112.870;2023-06-22T09:20:02;28.10;65.20
41953;DHT22;63613;28.200;112.870;2023-06-22T09:22:49;28.00;65.20
41953;DHT22;63613;28.200;112.870;2023-06-22T09:25:16;28.10;65.20
41953;DHT22;63613;28.200;112.870;2023-06-22T09:27:46;28.00;65.20
41953;DHT22;63613;28.200;112.870;2023-06-22T09:30:13;28.10;65.10
41953;DHT22;63613;28.200;112.870;2023-06-22T09:32:46;28.10;65.10
41953;DHT22;63613;28.200;112.870;2023-06-22T09:35:13;28.00;65.20
41953;DHT22;63613;28.200;112.870;2023-06-22T09:37:40;28.00;65.20
41953;DHT22;63613;28.200;112.870;2023-06-22T09:40:09;28.00;65.20
41953;DHT22;63613;28.200;112.870;2023-06-22T09:42:37;28.00;65.20
41953;DHT22;63613;28.200;112.870;2023-06-22T09:45:06;28.00;65.30
41953;DHT22;63613;28.200;112.870;2023-06-22T09:47:33;28.00;65.20
41953;DHT22;63613;28.200;112.870;2023-06-22T09:49:59;28.00;65.20
41953;DHT22;63613;28.200;112.870;2023-06-22T09:52:27;28.00;65.30
41953;DHT22;63613;28.200;112.870;2023-06-22T09:54:53;28.00;65.30
41953;DHT22;63613;28.200;112.870;2023-06-22T09:57:20;28.00;65.20
41953;DHT22;63613;28.200;112.870;2023-06-22T09:59:48;28.00;65.30
41953;DHT22;63613;28.200;112.870;2023-06-22T10:02:15;28.00;65.30
41953;DHT22;63613;28.200;112.870;2023-06-22T10:04:46;28.00;65.30
41953;DHT22;63613;28.200;112.870;2023-06-22T10:07:13;28.00;65.30
41953;DHT22;63613;28.200;112.870;2023-06-22T10:09:39;28.00;65.30
41953;DHT22;63613;28.200;112.870;2023-06-22T10:12:07;27.90;65.30
41953;DHT22;63613;28.200;112.870;2023-06-22T10:14:34;28.00;65.30
41953;DHT22;63613;28.200;112.870;2023-06-22T10:17:01;27.90;65.40
41953;DHT22;63613;28.200;112.870;2023-06-22T10:19:28;27.90;65.40
41953;DHT22;63613;28.200;112.870;2023-06-22T10:21:55;27.90;65.40
41953;DHT22;63613;28.200;112.870;2023-06-22T10:24:22;27.90;65.40
41953;DHT22;63613;28.200;112.870;2023-06-22T10:26:50;27.90;65.40
41953;DHT22;63613;28.200;112.870;2023-06-22T10:29:17;27.90;65.40
41953;DHT22;63613;28.200;112.870;2023-06-22T10:31:47;27.90;65.40
41953;DHT22;63613;28.200;112.870;2023-06-22T10:34:13;27.90;65.40
41953;DHT22;63613;28.200;112.870;2023-06-22T10:36:40;27.90;65.50
41953;DHT22;63613;28.200;112.870;2023-06-22T10:39:07;27.90;65.60
41953;DHT22;63613;28.200;112.870;2023-06-22T10:41:35;27.90;65.60
41953;DHT22;63613;28.200;112.870;2023-06-22T10:44:02;27.90;65.60
41953;DHT22;63613;28.200;112.870;2023-06-22T10:46:29;27.90;65.60
41953;DHT22;63613;28.200;112.870;2023-06-22T10:48:56;27.90;65.60
41953;DHT22;63613;28.200;112.870;2023-06-22T10:51:25;27.90;65.60
41953;DHT22;63613;28.200;112.870;2023-06-22T10:53:56;27.80;65.60
41953;DHT22;63613;28.200;112.870;2023-06-22T10:56:23;27.80;65.50
41953;DHT22;63613;28.200;112.870;2023-06-22T10:58:53;27.80;65.60
41953;DHT22;63613;28.200;112.870;2023-06-22T11:01:23;27.90;65.60
41953;DHT22;63613;28.200;112.870;2023-06-22T11:03:50;27.80;65.60
41953;DHT22;63613;28.200;112.870;2023-06-22T11:06:17;27.80;65.60
41953;DHT22;63613;28.200;112.870;2023-06-22T11:08:47;27.90;65.50
41953;DHT22;63613;28.200;112.870;2023-06-22T11:11:14;27.90;65.50
41953;DHT22;63613;28.200;112.870;2023-06-22T11:13:44;27.80;65.60
41953;DHT22;63613;28.200;112.870;2023-06-22T11:16:10;27.90;65.60
41953;DHT22;63613;28.200;112.870;2023-06-22T11:18:37;27.80;65.70
41953;DHT22;63613;28.200;112.870;2023-06-22T11:21:04;27.80;65.70
41953;DHT22;63613;28.200;112.870;2023-06-22T11:23:31;27.80;65.70
41953;DHT22;63613;28.200;112.870;2023-06-22T11:26:01;27.80;65.60
41953;DHT22;63613;28.200;112.870;2023-06-22T11:28:28;27.80;65.70
41953;DHT22;63613;28.200;112.870;2023-06-22T11:30:56;27.80;65.70
41953;DHT22;63613;28.200;112.870;2023-06-22T11:33:22;27.80;65.70
41953;DHT22;63613;28.200;112.870;2023-06-22T11:36:09;27.80;65.80
41953;DHT22;63613;28.200;112.870;2023-06-22T11:38:38;27.80;65.70
41953;DHT22;63613;28.200;112.870;2023-06-22T11:41:09;27.80;65.80
41953;DHT22;63613;28.200;112.870;2023-06-22T11:43:37;27.80;65.90
41953;DHT22;63613;28.200;112.870;2023-06-22T11:46:04;27.80;66.10
41953;DHT22;63613;28.200;112.870;2023-06-22T11:48:35;27.90;65.80
41953;DHT22;63613;28.200;112.870;2023-06-22T11:51:03;27.90;65.70
41953;DHT22;63613;28.200;112.870;2023-06-22T11:53:30;27.90;65.60
41953;DHT22;63613;28.200;112.870;2023-06-22T11:55:58;27.90;65.60
41953;DHT22;63613;28.200;112.870;2023-06-22T11:58:25;27.90;65.60
41953;DHT22;63613;28.200;112.870;2023-06-22T12:01:14;27.90;65.60
41953;DHT22;63613;28.200;112.870;2023-06-22T12:03:41;27.90;65.60
41953;DHT22;63613;28.200;112.870;2023-06-22T12:06:10;27.90;65.50
41953;DHT22;63613;28.200;112.870;2023-06-22T12:08:37;27.80;65.60
41953;DHT22;63613;28.200;112.870;2023-06-22T12:11:03;27.90;65.70
41953;DHT22;63613;28.200;112.870;2023-06-22T12:13:30;27.90;65.60
41953;DHT22;63613;28.200;112.870;2023-06-22T12:15:57;27.90;65.60
41953;DHT22;63613;28.200;112.870;2023-06-22T12:18:25;27.80;65.60
41953;DHT22;63613;28.200;112.870;2023-06-22T12:20:52;27.80;65.60
41953;DHT22;63613;28.200;112.870;2023-06-22T12:23:19;27.80;65.70
41953;DHT22;63613;28.200;112.870;2023-06-22T12:25:49;27.80;65.70
41953;DHT22;63613;28.200;112.870;2023-06-22T12:28:17;27.80;65.70
41953;DHT22;63613;28.200;112.870;2023-06-22T12:31:04;27.80;65.80
41953;DHT22;63613;28.200;112.870;2023-06-22T12:33:31;27.80;65.80
41953;DHT22;63613;28.200;112.870;2023-06-22T12:35:58;27.80;65.80
41953;DHT22;63613;28.200;112.870;2023-06-22T12:38:26;27.80;65.80
41953;DHT22;63613;28.200;112.870;2023-06-22T12:40:55;27.80;65.80
41953;DHT22;63613;28.200;112.870;2023-06-22T12:43:22;27.80;65.80
41953;DHT22;63613;28.200;112.870;2023-06-22T12:45:50;27.70;65.90
41953;DHT22;63613;28.200;112.870;2023-06-22T12:48:16;27.80;65.80
41953;DHT22;63613;28.200;112.870;2023-06-22T12:50:43;27.70;65.90
41953;DHT22;63613;28.200;112.870;2023-06-22T12:53:10;27.70;65.80
41953;DHT22;63613;28.200;112.870;2023-06-22T12:55:37;27.70;65.90
41953;DHT22;63613;28.200;112.870;2023-06-22T12:58:05;27.70;65.90
41953;DHT22;63613;28.200;112.870;2023-06-22T13:00:32;27.70;65.90
41953;DHT22;63613;28.200;112.870;2023-06-22T13:03:02;27.70;65.90
41953;DHT22;63613;28.200;112.870;2023-06-22T13:05:29;27.70;65.90
41953;DHT22;63613;28.200;112.870;2023-06-22T13:07:57;27.70;65.90
41953;DHT22;63613;28.200;112.870;2023-06-22T13:10:23;27.70;65.90
41953;DHT22;63613;28.200;112.870;2023-06-22T13:12:50;27.70;66.00
41953;DHT22;63613;28.200;112.870;2023-06-22T13:15:29;27.70;66.00
41953;DHT22;63613;28.200;112.870;2023-06-22T13:17:57;27.70;66.00
41953;DHT22;63613;28.200;112.870;2023-06-22T13:20:24;27.70;66.00
41953;DHT22;63613;28.200;112.870;2023-06-22T13:22:51;27.70;65.90
41953;DHT22;63613;28.200;112.870;2023-06-22T13:25:18;27.70;66.00
41953;DHT22;63613;28.200;112.870;2023-06-22T13:27:47;27.70;65.90
41953;DHT22;63613;28.200;112.870;2023-06-22T13:30:34;27.70;66.00
41953;DHT22;63613;28.200;112.870;2023-06-22T13:33:01;27.70;66.00
41953;DHT22;63613;28.200;112.870;2023-06-22T13:35:29;27.70;65.90
41953;DHT22;63613;28.200;112.870;2023-06-22T13:37:56;27.70;66.00
41953;DHT22;63613;28.200;112.870;2023-06-22T13:40:25;27.70;66.00
41953;DHT22;63613;28.200;112.870;2023-06-22T13:42:52;27.70;66.00
41953;DHT22;63613;28.200;112.870;2023-06-22T13:45:18;27.70;66.00
41953;DHT22;63613;28.200;112.870;2023-06-22T13:47:47;27.70;66.00
41953;DHT22;63613;28.200;112.870;2023-06-22T13:50:14;27.70;66.10
41953;DHT22;63613;28.200;112.870;2023-06-22T13:52:42;27.70;66.00
41953;DHT22;63613;28.200;112.870;2023-06-22T13:55:29;27.70;66.00
41953;DHT22;63613;28.200;112.870;2023-06-22T13:57:57;27.70;66.00
41953;DHT22;63613;28.200;112.870;2023-06-22T14:00:25;27.60;66.10
41953;DHT22;63613;28.200;112.870;2023-06-22T14:02:54;27.60;66.00
41953;DHT22;63613;28.200;112.870;2023-06-22T14:05:27;27.70;66.10
41953;DHT22;63613;28.200;112.870;2023-06-22T14:07:57;27.60;66.00
41953;DHT22;63613;28.200;112.870;2023-06-22T14:10:25;27.70;66.00
41953;DHT22;63613;28.200;112.870;2023-06-22T14:12:52;27.60;66.00
41953;DHT22;63613;28.200;112.870;2023-06-22T14:15:19;27.70;66.10
41953;DHT22;63613;28.200;112.870;2023-06-22T14:17:46;27.60;66.10
41953;DHT22;63613;28.200;112.870;2023-06-22T14:20:17;27.70;66.10
41953;DHT22;63613;28.200;112.870;2023-06-22T14:22:46;27.60;66.10
41953;DHT22;63613;28.200;112.870;2023-06-22T14:25:12;27.60;66.10
41953;DHT22;63613;28.200;112.870;2023-06-22T14:27:42;27.60;66.10
41953;DHT22;63613;28.200;112.870;2023-06-22T14:30:13;27.60;66.10
41953;DHT22;63613;28.200;112.870;2023-06-22T14:32:40;27.50;66.20
41953;DHT22;63613;28.200;112.870;2023-06-22T14:35:08;27.50;66.10
41953;DHT22;63613;28.200;112.870;2023-06-22T14:37:38;27.60;66.10
41953;DHT22;63613;28.200;112.870;2023-06-22T14:40:10;27.60;66.10
41953;DHT22;63613;28.200;112.870;2023-06-22T14:42:39;27.60;66.10
41953;DHT22;63613;28.200;112.870;2023-06-22T14:45:06;27.60;66.20
41953;DHT22;63613;28.200;112.870;2023-06-22T14:47:33;27.50;66.20
41953;DHT22;63613;28.200;112.870;2023-06-22T14:50:20;27.50;66.20
41953;DHT22;63613;28.200;112.870;2023-06-22T14:52:48;27.50;66.20
41953;DHT22;63613;28.200;112.870;2023-06-22T14:55:15;27.60;66.20
41953;DHT22;63613;28.200;112.870;2023-06-22T14:57:42;27.50;66.20
41953;DHT22;63613;28.200;112.870;2023-06-22T15:00:09;27.50;66.20
41953;DHT22;63613;28.200;112.870;2023-06-22T15:02:36;27.50;66.20
41953;DHT22;63613;28.200;112.870;2023-06-22T15:05:06;27.50;66.20
41953;DHT22;63613;28.200;112.870;2023-06-22T15:07:33;27.50;66.20
41953;DHT22;63613;28.200;112.870;2023-06-22T15:10:05;27.50;66.30
41953;DHT22;63613;28.200;112.870;2023-06-22T15:12:33;27.50;66.30
41953;DHT22;63613;28.200;112.870;2023-06-22T15:15:00;27.50;66.20
41953;DHT22;63613;28.200;112.870;2023-06-22T15:17:27;27.50;66.20
41953;DHT22;63613;28.200;112.870;2023-06-22T15:19:58;27.50;66.20